createdAt,value
2023-05-22T00:01:27.443Z,42.63
2023-05-22T00:03:54.720Z,42.84
2023-05-22T00:06:23.569Z,42.91
2023-05-22T00:08:50.765Z,43.00
2023-05-22T00:11:17.949Z,42.92
2023-05-22T00:13:45.103Z,42.91
2023-05-22T00:16:12.424Z,42.91
2023-05-22T00:18:42.518Z,42.88
2023-05-22T00:21:10.498Z,42.97
2023-05-22T00:23:37.715Z,42.94
2023-05-22T00:26:05.002Z,42.89
2023-05-22T00:28:32.111Z,42.99
2023-05-22T00:30:59.331Z,43.21
2023-05-22T00:33:26.531Z,43.07
2023-05-22T00:35:53.685Z,43.10
2023-05-22T00:38:35.257Z,43.20
2023-05-22T00:41:04.889Z,43.39
2023-05-22T00:43:32.971Z,43.24
2023-05-22T00:46:00.564Z,43.30
2023-05-22T00:48:27.829Z,43.31
2023-05-22T00:50:57.687Z,43.47
2023-05-22T00:53:26.119Z,43.28
2023-05-22T00:55:54.288Z,43.28
2023-05-22T00:58:22.097Z,43.60
2023-05-22T01:00:49.619Z,43.59
2023-05-22T01:03:19.051Z,43.47
2023-05-22T01:05:46.550Z,43.57
2023-05-22T01:08:13.860Z,43.76
2023-05-22T01:10:41.621Z,43.70
2023-05-22T01:13:18.054Z,43.68
2023-05-22T01:15:53.774Z,43.87
2023-05-22T01:18:48.266Z,43.83
2023-05-22T01:21:22.190Z,43.75
2023-05-22T01:24:28.073Z,43.86
2023-05-22T01:27:15.522Z,43.85
2023-05-22T01:29:52.071Z,43.91
2023-05-22T01:32:22.047Z,44.09
2023-05-22T01:34:56.831Z,44.08
2023-05-22T01:37:24.984Z,44.24
2023-05-22T01:39:54.270Z,44.00
2023-05-22T01:42:21.986Z,43.88
2023-05-22T01:44:49.467Z,44.16
2023-05-22T01:47:18.165Z,44.07
2023-05-22T01:49:47.356Z,44.16
2023-05-22T01:52:27.404Z,44.04
2023-05-22T01:55:17.644Z,44.27
2023-05-22T01:57:51.795Z,44.13
2023-05-22T02:00:22.487Z,44.36
2023-05-22T02:02:58.563Z,44.36
2023-05-22T02:05:29.594Z,44.34
2023-05-22T02:08:01.941Z,44.47
2023-05-22T02:10:30.666Z,44.37
2023-05-22T02:12:58.067Z,44.24
2023-05-22T02:15:25.281Z,44.36
2023-05-22T02:17:53.512Z,44.51
2023-05-22T02:20:20.932Z,44.53
2023-05-22T02:22:48.487Z,44.42
2023-05-22T02:25:17.220Z,44.51
2023-05-22T02:27:46.201Z,44.57
2023-05-22T02:30:14.594Z,44.55
2023-05-22T02:32:42.600Z,44.61
2023-05-22T02:35:10.294Z,44.48
2023-05-22T02:37:38.149Z,44.57
2023-05-22T02:40:10.220Z,44.67
2023-05-22T02:42:37.422Z,44.75
2023-05-22T02:45:07.155Z,44.75
2023-05-22T02:47:34.367Z,44.78
2023-05-22T02:50:01.553Z,44.83
2023-05-22T02:52:31.076Z,44.83
2023-05-22T02:54:58.314Z,44.89
2023-05-22T02:57:25.664Z,44.76
2023-05-22T02:59:54.224Z,44.88
2023-05-22T03:02:21.429Z,44.90
2023-05-22T03:04:48.698Z,44.91
2023-05-22T03:07:16.088Z,44.95
2023-05-22T03:09:43.278Z,44.92
2023-05-22T03:12:10.546Z,45.23
2023-05-22T03:14:37.922Z,45.15
2023-05-22T03:17:05.290Z,45.15
2023-05-22T03:19:32.476Z,44.98
2023-05-22T03:21:59.739Z,45.22
2023-05-22T03:24:27.411Z,45.19
2023-05-22T03:26:54.726Z,45.22
2023-05-22T03:29:31.466Z,45.20
2023-05-22T03:31:59.995Z,45.38
2023-05-22T03:34:27.696Z,45.27
2023-05-22T03:36:57.432Z,45.42
2023-05-22T03:39:24.747Z,45.21
2023-05-22T03:41:58.868Z,45.39
2023-05-22T03:44:27.189Z,45.37
2023-05-22T03:46:54.625Z,45.36
2023-05-22T03:49:21.882Z,45.43
2023-05-22T03:51:49.058Z,45.30
2023-05-22T03:54:16.429Z,45.64
2023-05-22T03:56:44.110Z,45.43
2023-05-22T03:59:11.767Z,45.61
2023-05-22T04:01:40.080Z,45.38
2023-05-22T04:04:07.320Z,45.59
2023-05-22T04:06:43.266Z,45.65
2023-05-22T04:09:13.639Z,45.61
2023-05-22T04:11:42.328Z,45.70
2023-05-22T04:14:10.162Z,45.56
2023-05-22T04:16:37.339Z,45.73
2023-05-22T04:19:05.898Z,45.76
2023-05-22T04:21:34.496Z,45.93
2023-05-22T04:24:07.296Z,45.72
2023-05-22T04:26:34.915Z,45.81
2023-05-22T04:29:02.496Z,45.73
2023-05-22T04:31:30.083Z,45.74
2023-05-22T04:34:00.269Z,45.93
2023-05-22T04:36:28.063Z,45.89
2023-05-22T04:38:55.645Z,45.86
2023-05-22T04:41:26.583Z,45.84
2023-05-22T04:43:54.222Z,45.97
2023-05-22T04:46:21.558Z,46.09
2023-05-22T04:48:48.943Z,45.90
2023-05-22T04:51:16.563Z,46.03
2023-05-22T04:53:43.980Z,46.16
2023-05-22T04:56:13.065Z,46.17
2023-05-22T04:58:41.849Z,45.98
2023-05-22T05:01:09.655Z,46.16
2023-05-22T05:03:37.618Z,46.21
2023-05-22T05:06:04.944Z,46.06
2023-05-22T05:08:32.112Z,46.21
2023-05-22T05:11:00.076Z,46.43
2023-05-22T05:13:27.333Z,46.19
2023-05-22T05:15:55.291Z,46.24
2023-05-22T05:18:22.639Z,46.24
2023-05-22T05:20:50.410Z,46.37
2023-05-22T05:23:18.217Z,46.45
2023-05-22T05:25:45.532Z,46.19
2023-05-22T05:28:13.039Z,46.34
2023-05-22T05:30:42.135Z,46.26
2023-05-22T05:33:15.645Z,46.62
2023-05-22T05:36:03.889Z,46.53
2023-05-22T05:38:32.393Z,46.44
2023-05-22T05:40:59.961Z,46.43
2023-05-22T05:43:28.500Z,46.46
2023-05-22T05:45:59.524Z,46.65
2023-05-22T05:48:26.830Z,46.59
2023-05-22T05:50:54.472Z,46.38
2023-05-22T05:53:22.519Z,46.38
2023-05-22T05:55:55.264Z,46.60
2023-05-22T05:58:23.049Z,46.42
2023-05-22T06:01:05.228Z,46.46
2023-05-22T06:03:32.944Z,46.48
2023-05-22T06:06:12.786Z,46.40
2023-05-22T06:09:05.645Z,46.24
2023-05-22T06:11:36.538Z,46.27
2023-05-22T06:14:05.080Z,46.15
2023-05-22T06:16:32.338Z,46.17
2023-05-22T06:19:00.748Z,46.31
2023-05-22T06:21:27.933Z,46.21
2023-05-22T06:23:55.056Z,46.16
2023-05-22T06:26:23.638Z,46.16
2023-05-22T06:28:54.147Z,46.31
2023-05-22T06:31:23.053Z,46.34
2023-05-22T06:33:52.094Z,46.22
2023-05-22T06:36:19.964Z,46.18
2023-05-22T06:38:49.668Z,46.07
2023-05-22T06:41:36.877Z,45.93
2023-05-22T06:44:06.612Z,46.02
2023-05-22T06:46:38.067Z,45.96
2023-05-22T06:49:06.244Z,45.96
2023-05-22T06:51:37.347Z,45.73
2023-05-22T06:54:08.264Z,45.72
2023-05-22T06:56:37.167Z,45.69
2023-05-22T06:59:07.428Z,45.62
2023-05-22T07:01:53.534Z,45.54
2023-05-22T07:04:28.998Z,45.56
2023-05-22T07:06:58.900Z,45.52
2023-05-22T07:09:26.276Z,45.44
2023-05-22T07:11:53.904Z,45.33
2023-05-22T07:14:21.311Z,45.40
2023-05-22T07:16:48.653Z,45.24
2023-05-22T07:19:20.446Z,45.17
2023-05-22T07:21:47.736Z,45.12
2023-05-22T07:24:17.059Z,45.12
2023-05-22T07:26:46.641Z,45.00
2023-05-22T07:29:14.329Z,44.98
2023-05-22T07:31:42.548Z,44.93
2023-05-22T07:34:10.608Z,44.94
2023-05-22T07:36:39.043Z,44.85
2023-05-22T07:39:07.415Z,44.74
2023-05-22T07:41:37.102Z,44.70
2023-05-22T07:44:06.126Z,44.58
2023-05-22T07:46:38.241Z,44.53
2023-05-22T07:49:10.987Z,44.54
2023-05-22T07:51:41.161Z,44.54
2023-05-22T07:54:08.458Z,44.35
2023-05-22T07:56:39.717Z,44.38
2023-05-22T07:59:07.730Z,44.34
2023-05-22T08:01:37.481Z,44.31
2023-05-22T08:04:06.084Z,44.27
2023-05-22T08:06:35.180Z,43.96
2023-05-22T08:09:02.993Z,43.94
2023-05-22T08:11:30.344Z,43.86
2023-05-22T08:13:57.533Z,44.00
2023-05-22T08:16:24.644Z,44.00
2023-05-22T08:18:51.972Z,43.91
2023-05-22T08:21:19.283Z,43.81
2023-05-22T08:23:46.477Z,43.78
2023-05-22T08:26:15.082Z,43.63
2023-05-22T08:28:44.377Z,43.58
2023-05-22T08:31:12.384Z,43.66
2023-05-22T08:33:39.865Z,43.61
2023-05-22T08:36:07.199Z,43.50
2023-05-22T08:38:34.580Z,43.34
2023-05-22T08:41:01.840Z,43.33
2023-05-22T08:43:29.670Z,43.25
2023-05-22T08:46:03.359Z,43.22
2023-05-22T08:48:32.036Z,43.03
2023-05-22T08:51:03.679Z,43.05
2023-05-22T08:53:42.940Z,42.93
2023-05-22T08:56:10.840Z,42.92
2023-05-22T08:58:38.667Z,42.69
2023-05-22T09:01:08.969Z,42.66
2023-05-22T09:03:37.060Z,42.58
2023-05-22T09:06:04.804Z,42.62
2023-05-22T09:08:31.984Z,42.66
2023-05-22T09:10:59.225Z,42.44
2023-05-22T09:13:31.318Z,42.44
2023-05-22T09:16:00.869Z,42.38
2023-05-22T09:18:29.790Z,42.26
2023-05-22T09:21:02.684Z,42.29
2023-05-22T09:23:30.407Z,42.24
2023-05-22T09:25:58.885Z,42.24
2023-05-22T09:28:26.560Z,42.23
2023-05-22T09:30:55.264Z,41.91
2023-05-22T09:33:23.602Z,41.59
2023-05-22T09:35:52.660Z,41.55
2023-05-22T09:38:23.090Z,41.45
2023-05-22T09:40:54.660Z,41.44
2023-05-22T09:43:26.203Z,41.46
2023-05-22T09:46:06.608Z,41.30
2023-05-22T09:48:36.807Z,41.17
2023-05-22T09:51:05.283Z,41.13
2023-05-22T09:53:33.362Z,41.13
2023-05-22T09:56:02.250Z,41.02
2023-05-22T09:58:31.638Z,40.95
2023-05-22T10:01:00.221Z,41.08
2023-05-22T10:03:27.893Z,41.16
2023-05-22T10:05:58.990Z,40.95
2023-05-22T10:08:29.007Z,40.88
2023-05-22T10:10:57.986Z,40.95
2023-05-22T10:13:26.391Z,40.95
2023-05-22T10:15:54.641Z,40.81
2023-05-22T10:18:22.255Z,40.66
2023-05-22T10:20:50.116Z,40.52
2023-05-22T10:23:19.262Z,40.63
2023-05-22T10:25:47.029Z,40.70
2023-05-22T10:28:23.659Z,40.42
2023-05-22T10:31:02.165Z,40.14
2023-05-22T10:33:56.603Z,40.13
2023-05-22T10:36:43.741Z,40.20
2023-05-22T10:39:39.768Z,40.11
2023-05-22T10:42:13.457Z,40.14
2023-05-22T10:44:41.381Z,40.07
2023-05-22T10:47:11.459Z,40.03
2023-05-22T10:49:43.456Z,39.95
2023-05-22T10:52:11.569Z,39.89
2023-05-22T10:54:53.663Z,39.88
2023-05-22T10:57:24.532Z,39.96
2023-05-22T10:59:51.726Z,39.77
2023-05-22T11:02:25.756Z,39.78
2023-05-22T11:04:53.299Z,39.71
2023-05-22T11:07:20.695Z,39.58
2023-05-22T11:09:48.834Z,39.66
2023-05-22T11:12:31.020Z,39.54
2023-05-22T11:15:09.604Z,39.55
2023-05-22T11:17:39.892Z,39.42
2023-05-22T11:20:21.259Z,39.45
2023-05-22T11:23:02.187Z,39.45
2023-05-22T11:25:30.100Z,39.38
2023-05-22T11:27:58.575Z,39.46
2023-05-22T11:30:27.364Z,39.30
2023-05-22T11:32:54.673Z,39.38
2023-05-22T11:35:22.423Z,39.37
2023-05-22T11:37:51.020Z,39.14
2023-05-22T11:40:24.617Z,39.12
2023-05-22T11:42:53.322Z,39.11
2023-05-22T11:45:21.549Z,39.28
2023-05-22T11:47:49.092Z,39.33
2023-05-22T11:50:22.521Z,38.98
2023-05-22T11:52:59.488Z,38.99
2023-05-22T11:55:26.688Z,38.99
2023-05-22T11:57:56.210Z,38.86
2023-05-22T12:00:23.569Z,38.90
2023-05-22T12:02:51.104Z,38.89
2023-05-22T12:05:21.292Z,38.74
2023-05-22T12:07:48.554Z,38.61
2023-05-22T12:10:15.854Z,38.47
2023-05-22T12:12:44.263Z,38.50
2023-05-22T12:15:11.721Z,38.59
2023-05-22T12:17:40.233Z,38.54
2023-05-22T12:20:07.691Z,38.46
2023-05-22T12:22:41.356Z,38.30
2023-05-22T12:25:15.202Z,38.22
2023-05-22T12:27:44.558Z,38.23
2023-05-22T12:30:13.889Z,38.27
2023-05-22T12:32:41.227Z,38.21
2023-05-22T12:35:15.532Z,38.30
2023-05-22T12:37:49.309Z,38.20
2023-05-22T12:40:16.621Z,37.99
2023-05-22T12:42:45.142Z,38.04
2023-05-22T12:45:13.348Z,37.92
2023-05-22T12:47:40.812Z,37.84
2023-05-22T12:50:08.587Z,37.78
2023-05-22T12:52:36.345Z,37.66
2023-05-22T12:55:03.577Z,37.80
2023-05-22T12:57:30.824Z,37.68
2023-05-22T12:59:57.997Z,37.62
2023-05-22T13:02:25.206Z,37.55
2023-05-22T13:04:52.551Z,37.52
2023-05-22T13:07:19.718Z,37.50
2023-05-22T13:09:46.934Z,37.63
2023-05-22T13:12:14.207Z,37.26
2023-05-22T13:14:41.360Z,37.27
2023-05-22T13:17:08.523Z,37.04
2023-05-22T13:19:35.800Z,37.25
2023-05-22T13:22:03.256Z,37.21
2023-05-22T13:24:30.450Z,37.26
2023-05-22T13:26:57.672Z,37.20
2023-05-22T13:29:24.866Z,37.18
2023-05-22T13:31:52.045Z,37.16
2023-05-22T13:34:19.243Z,37.30
2023-05-22T13:36:46.672Z,37.18
2023-05-22T13:39:13.856Z,37.10
2023-05-22T13:41:41.029Z,37.10
2023-05-22T13:44:08.357Z,37.08
2023-05-22T13:46:35.830Z,37.13
2023-05-22T13:49:03.532Z,37.01
2023-05-22T13:51:31.141Z,36.84
2023-05-22T13:53:58.346Z,36.61
2023-05-22T13:56:26.203Z,36.59
2023-05-22T13:58:53.378Z,36.64
2023-05-22T14:01:20.728Z,36.69
2023-05-22T14:03:47.920Z,36.75
2023-05-22T14:06:15.171Z,36.63
2023-05-22T14:08:42.729Z,36.45
2023-05-22T14:11:09.987Z,36.39
2023-05-22T14:13:37.172Z,36.27
2023-05-22T14:16:05.660Z,36.30
2023-05-22T14:18:32.836Z,36.22
2023-05-22T14:21:00.483Z,36.48
2023-05-22T14:23:28.367Z,36.42
2023-05-22T14:25:55.622Z,36.27
2023-05-22T14:28:22.843Z,36.24
2023-05-22T14:30:50.098Z,36.33
2023-05-22T14:33:17.396Z,36.34
2023-05-22T14:35:44.633Z,36.28
2023-05-22T14:38:11.809Z,36.17
2023-05-22T14:40:38.889Z,36.36
2023-05-22T14:43:06.260Z,36.23
2023-05-22T14:45:33.411Z,36.22
2023-05-22T14:48:00.682Z,36.23
2023-05-22T14:50:28.005Z,36.26
2023-05-22T14:52:55.203Z,36.11
2023-05-22T14:55:22.405Z,36.08
2023-05-22T14:57:49.796Z,36.21
2023-05-22T15:00:17.370Z,36.15
2023-05-22T15:02:44.774Z,36.12
2023-05-22T15:05:12.160Z,36.18
2023-05-22T15:07:44.651Z,36.14
2023-05-22T15:10:13.343Z,36.00
2023-05-22T15:12:40.659Z,36.10
2023-05-22T15:15:08.639Z,36.00
2023-05-22T15:17:36.132Z,35.94
2023-05-22T15:20:05.042Z,35.99
2023-05-22T15:22:32.196Z,35.86
2023-05-22T15:25:06.816Z,35.89
2023-05-22T15:27:35.345Z,35.87
2023-05-22T15:30:04.075Z,36.04
2023-05-22T15:32:34.480Z,35.85
2023-05-22T15:35:01.787Z,35.90
2023-05-22T15:37:39.511Z,35.80
2023-05-22T15:40:09.772Z,35.76
2023-05-22T15:42:38.163Z,35.76
2023-05-22T15:45:05.943Z,35.77
2023-05-22T15:47:33.170Z,35.82
2023-05-22T15:50:00.340Z,35.88
2023-05-22T15:52:27.559Z,35.72
2023-05-22T15:54:56.402Z,35.78
2023-05-22T15:57:24.263Z,35.66
2023-05-22T15:59:51.442Z,35.62
2023-05-22T16:02:19.132Z,35.73
2023-05-22T16:04:46.863Z,35.80
2023-05-22T16:07:14.098Z,35.80
2023-05-22T16:09:43.484Z,35.78
2023-05-22T16:12:10.772Z,35.77
2023-05-22T16:14:39.871Z,35.79
2023-05-22T16:17:07.391Z,35.71
2023-05-22T16:19:34.902Z,35.74
2023-05-22T16:22:03.084Z,35.71
2023-05-22T16:24:30.296Z,35.65
2023-05-22T16:26:59.853Z,35.84
2023-05-22T16:29:27.135Z,35.84
2023-05-22T16:31:57.068Z,35.86
2023-05-22T16:34:24.391Z,35.74
2023-05-22T16:36:51.563Z,35.75
2023-05-22T16:39:18.731Z,35.73
2023-05-22T16:41:46.113Z,35.83
2023-05-22T16:44:13.541Z,35.76
2023-05-22T16:46:40.988Z,35.78
2023-05-22T16:49:08.222Z,35.69
2023-05-22T16:51:35.465Z,35.84
2023-05-22T16:54:02.589Z,35.78
2023-05-22T16:56:32.921Z,35.72
2023-05-22T16:59:00.592Z,35.67
2023-05-22T17:01:28.471Z,35.68
2023-05-22T17:03:55.744Z,35.68
2023-05-22T17:06:22.933Z,35.73
2023-05-22T17:08:50.110Z,35.80
2023-05-22T17:11:17.206Z,35.78
2023-05-22T17:13:44.346Z,35.74
2023-05-22T17:16:11.699Z,35.73
2023-05-22T17:18:38.833Z,35.81
2023-05-22T17:21:09.277Z,35.64
2023-05-22T17:23:37.446Z,35.78
2023-05-22T17:26:04.868Z,35.74
2023-05-22T17:28:32.184Z,35.83
2023-05-22T17:30:59.388Z,35.77
2023-05-22T17:33:26.825Z,35.85
2023-05-22T17:35:54.099Z,35.86
2023-05-22T17:38:22.114Z,35.79
2023-05-22T17:40:49.542Z,35.90
2023-05-22T17:43:19.111Z,35.79
2023-05-22T17:45:53.276Z,36.05
2023-05-22T17:48:27.101Z,36.01
2023-05-22T17:50:54.793Z,35.85
2023-05-22T17:53:22.123Z,35.89
2023-05-22T17:55:51.001Z,35.88
2023-05-22T17:58:19.416Z,36.07
2023-05-22T18:00:48.831Z,36.08
2023-05-22T18:03:20.481Z,36.06
2023-05-22T18:05:51.529Z,36.06
2023-05-22T18:08:19.236Z,36.31
2023-05-22T18:10:46.459Z,36.39
2023-05-22T18:13:13.605Z,36.39
2023-05-22T18:15:40.971Z,36.40
2023-05-22T18:18:09.549Z,36.47
2023-05-22T18:20:38.272Z,36.59
2023-05-22T18:23:08.312Z,36.65
2023-05-22T18:25:35.851Z,36.62
2023-05-22T18:28:03.201Z,36.72
2023-05-22T18:30:30.579Z,36.85
2023-05-22T18:32:57.803Z,36.88
2023-05-22T18:35:24.906Z,36.95
2023-05-22T18:37:52.026Z,36.91
2023-05-22T18:40:19.323Z,37.05
2023-05-22T18:42:46.545Z,37.15
2023-05-22T18:45:14.421Z,37.01
2023-05-22T18:47:41.836Z,37.14
2023-05-22T18:50:09.371Z,37.30
2023-05-22T18:52:37.209Z,37.34
2023-05-22T18:55:05.033Z,37.33
2023-05-22T18:57:32.100Z,37.43
2023-05-22T18:59:59.540Z,37.41
2023-05-22T19:02:26.720Z,37.56
2023-05-22T19:04:53.983Z,37.68
2023-05-22T19:07:21.505Z,37.65
2023-05-22T19:09:49.782Z,37.81
2023-05-22T19:12:17.067Z,37.94
2023-05-22T19:14:44.289Z,38.14
2023-05-22T19:17:12.458Z,37.98
2023-05-22T19:19:39.790Z,38.10
2023-05-22T19:22:06.972Z,38.07
2023-05-22T19:24:34.229Z,38.04
2023-05-22T19:27:01.454Z,38.33
2023-05-22T19:29:28.711Z,38.44
2023-05-22T19:31:56.041Z,38.42
2023-05-22T19:34:23.230Z,38.46
2023-05-22T19:36:51.847Z,38.48
2023-05-22T19:39:19.076Z,38.62
2023-05-22T19:41:47.534Z,38.73
2023-05-22T19:44:15.157Z,38.71
2023-05-22T19:46:42.423Z,38.71
2023-05-22T19:49:09.796Z,38.79
2023-05-22T19:51:37.451Z,38.99
2023-05-22T19:54:05.151Z,39.02
2023-05-22T19:56:32.606Z,38.88
2023-05-22T19:58:59.791Z,39.02
2023-05-22T20:01:27.135Z,39.13
2023-05-22T20:03:56.273Z,39.18
2023-05-22T20:06:23.791Z,39.18
2023-05-22T20:08:51.008Z,39.17
2023-05-22T20:11:18.145Z,39.21
2023-05-22T20:13:45.402Z,39.35
2023-05-22T20:16:12.912Z,39.26
2023-05-22T20:18:41.312Z,39.34
2023-05-22T20:21:08.599Z,39.46
2023-05-22T20:23:35.871Z,39.50
2023-05-22T20:26:03.095Z,39.61
2023-05-22T20:28:30.273Z,39.67
2023-05-22T20:30:57.513Z,39.58
2023-05-22T20:33:24.689Z,39.67
2023-05-22T20:35:53.301Z,39.69
2023-05-22T20:38:20.676Z,39.79
2023-05-22T20:40:48.296Z,39.71
2023-05-22T20:43:16.119Z,39.87
2023-05-22T20:45:46.001Z,39.87
2023-05-22T20:48:13.816Z,40.00
2023-05-22T20:50:42.157Z,39.83
2023-05-22T20:53:09.358Z,39.90
2023-05-22T20:55:37.236Z,39.91
2023-05-22T20:58:04.592Z,40.09
2023-05-22T21:00:31.816Z,40.10
2023-05-22T21:03:01.281Z,40.19
2023-05-22T21:05:28.676Z,40.27
2023-05-22T21:07:56.274Z,40.15
2023-05-22T21:10:23.419Z,40.27
2023-05-22T21:12:50.745Z,40.39
2023-05-22T21:15:17.960Z,40.30
2023-05-22T21:17:45.181Z,40.36
2023-05-22T21:20:12.528Z,40.62
2023-05-22T21:22:40.095Z,40.52
2023-05-22T21:25:08.079Z,40.51
2023-05-22T21:27:35.210Z,40.63
2023-05-22T21:30:02.430Z,40.65
2023-05-22T21:32:29.614Z,40.54
2023-05-22T21:34:56.772Z,40.57
2023-05-22T21:37:24.012Z,40.82
2023-05-22T21:39:51.144Z,40.74
2023-05-22T21:42:19.015Z,40.97
2023-05-22T21:44:47.427Z,41.10
2023-05-22T21:47:14.561Z,41.17
2023-05-22T21:49:42.084Z,41.10
2023-05-22T21:52:09.368Z,41.07
2023-05-22T21:54:36.694Z,41.14
2023-05-22T21:57:04.029Z,41.21
2023-05-22T21:59:31.238Z,41.21
2023-05-22T22:01:58.532Z,41.20
2023-05-22T22:04:25.675Z,41.17
2023-05-22T22:06:52.880Z,41.19
2023-05-22T22:09:20.112Z,41.37
2023-05-22T22:11:48.782Z,41.37
2023-05-22T22:14:15.936Z,41.46
2023-05-22T22:16:44.553Z,41.48
2023-05-22T22:19:11.762Z,41.60
2023-05-22T22:21:39.062Z,41.75
2023-05-22T22:24:06.531Z,41.66
2023-05-22T22:26:33.690Z,41.77
2023-05-22T22:29:00.826Z,41.74
2023-05-22T22:31:27.988Z,41.98
2023-05-22T22:33:55.231Z,42.01
2023-05-22T22:36:23.002Z,42.04
2023-05-22T22:38:50.282Z,42.01
2023-05-22T22:41:17.432Z,42.08
2023-05-22T22:43:44.646Z,42.20
2023-05-22T22:46:11.791Z,42.20
2023-05-22T22:48:41.803Z,42.14
2023-05-22T22:51:09.736Z,42.15
2023-05-22T22:53:37.335Z,42.06
2023-05-22T22:56:04.828Z,42.23
2023-05-22T22:58:32.076Z,42.36
2023-05-22T23:00:59.283Z,42.42
2023-05-22T23:03:27.365Z,42.52
2023-05-22T23:05:54.541Z,42.50
2023-05-22T23:08:21.697Z,42.49
2023-05-22T23:10:48.925Z,42.44
2023-05-22T23:13:17.613Z,42.56
2023-05-22T23:15:44.927Z,42.49
2023-05-22T23:18:14.014Z,42.70
2023-05-22T23:20:41.365Z,42.84
2023-05-22T23:23:11.062Z,42.71
2023-05-22T23:25:38.463Z,42.84
2023-05-22T23:28:07.284Z,42.89
2023-05-22T23:30:34.495Z,42.81
2023-05-22T23:33:02.755Z,42.96
2023-05-22T23:35:29.985Z,42.96
2023-05-22T23:37:57.151Z,42.87
2023-05-22T23:40:24.403Z,42.98
2023-05-22T23:42:51.583Z,42.97
2023-05-22T23:45:18.757Z,43.14
2023-05-22T23:47:45.969Z,43.17
2023-05-22T23:50:13.184Z,43.08
2023-05-22T23:52:40.954Z,43.30
2023-05-22T23:55:08.954Z,43.49
2023-05-22T23:57:36.234Z,43.31
